Time;durP1;ratioP1;P1;durP2;ratioP2;P2;SDS_P1;SDS_P2;PMS_P1;PMS_P2;Temp;Humidity;BMP_temperature;BMP_pressure;BME280_temperature;BME280_humidity;BME280_pressure;Samples;Min_cycle;Max_cycle;Signal;HPM_P1;HPM_P2
2022/06/10 00:00:21;;;;;;;3.10;2.03;;;;;;;;;;5046738;28;20294;-63
2022/06/10 00:02:52;;;;;;;2.97;1.63;;;;;;;;;;5049137;28;20262;-62
2022/06/10 00:05:25;;;;;;;3.33;1.73;;;;;;;;;;5045842;28;20627;-62
2022/06/10 00:07:57;;;;;;;3.83;2.20;;;;;;;;;;5040819;28;20706;-62
2022/06/10 00:10:49;;;;;;;4.83;2.20;;;;;;;;;;5030958;28;20218;-62
2022/06/10 00:13:20;;;;;;;2.77;1.80;;;;;;;;;;5032584;28;20183;-62
2022/06/10 00:15:49;;;;;;;3.80;1.93;;;;;;;;;;5045684;28;20194;-62
2022/06/10 00:18:22;;;;;;;5.10;2.10;;;;;;;;;;5034317;28;20222;-63
2022/06/10 00:20:52;;;;;;;3.47;1.80;;;;;;;;;;5046447;28;20784;-63
2022/06/10 00:23:21;;;;;;;4.30;2.60;;;;;;;;;;5045098;28;20206;-62
2022/06/10 00:25:51;;;;;;;3.03;1.80;;;;;;;;;;5029964;28;20183;-63
2022/06/10 00:28:24;;;;;;;2.60;1.63;;;;;;;;;;5048644;28;20195;-63
2022/06/10 00:30:54;;;;;;;3.07;2.00;;;;;;;;;;5046573;28;20202;-63
2022/06/10 00:33:24;;;;;;;2.53;1.73;;;;;;;;;;5047782;28;20720;-63
2022/06/10 00:35:55;;;;;;;4.60;1.80;;;;;;;;;;5046247;28;20191;-62
2022/06/10 00:38:23;;;;;;;3.13;1.63;;;;;;;;;;5044441;28;20190;-62
2022/06/10 00:40:56;;;;;;;2.73;1.63;;;;;;;;;;5049133;28;20195;-63
2022/06/10 00:43:28;;;;;;;3.90;2.00;;;;;;;;;;5045798;28;20209;-62
2022/06/10 00:46:23;;;;;;;3.63;2.00;;;;;;;;;;5048821;28;20553;-69
2022/06/10 00:49:13;;;;;;;2.67;1.70;;;;;;;;;;5037831;28;20223;-63
2022/06/10 00:51:44;;;;;;;3.63;2.00;;;;;;;;;;5044411;28;20206;-63
2022/06/10 00:54:26;;;;;;;3.13;1.73;;;;;;;;;;5045924;28;20202;-63
2022/06/10 00:57:10;;;;;;;4.00;2.10;;;;;;;;;;5049244;28;20198;-63
2022/06/10 00:59:42;;;;;;;3.07;1.90;;;;;;;;;;5045922;28;20229;-62
2022/06/10 01:02:12;;;;;;;5.53;1.80;;;;;;;;;;5048051;28;20200;-63
2022/06/10 01:04:45;;;;;;;3.07;1.90;;;;;;;;;;5031841;28;20206;-63
2022/06/10 01:07:17;;;;;;;3.77;1.83;;;;;;;;;;5028726;28;20221;-63
2022/06/10 01:09:51;;;;;;;3.13;1.70;;;;;;;;;;5030450;28;20217;-63
2022/06/10 01:12:39;;;;;;;5.13;1.80;;;;;;;;;;5048307;28;21559;-63
2022/06/10 01:15:25;;;;;;;3.70;2.00;;;;;;;;;;5048935;28;20289;-63
2022/06/10 01:18:02;;;;;;;3.77;1.63;;;;;;;;;;5031673;28;20321;-63
2022/06/10 01:20:46;;;;;;;3.20;1.60;;;;;;;;;;5044014;28;20194;-63
2022/06/10 01:23:34;;;;;;;5.27;1.87;;;;;;;;;;5038921;28;20203;-63
2022/06/10 01:26:21;;;;;;;4.30;2.10;;;;;;;;;;5048265;28;20298;-63
2022/06/10 01:29:11;;;;;;;3.13;1.73;;;;;;;;;;5047840;28;20209;-63
2022/06/10 01:31:42;;;;;;;3.07;1.77;;;;;;;;;;5043037;28;20366;-63
2022/06/10 01:34:22;;;;;;;4.60;1.70;;;;;;;;;;5047620;28;20248;-63
2022/06/10 01:36:54;;;;;;;4.90;1.90;;;;;;;;;;5048095;28;20190;-63
2022/06/10 01:39:25;;;;;;;3.60;1.90;;;;;;;;;;5051933;28;20857;-63
2022/06/10 01:42:12;;;;;;;3.73;1.80;;;;;;;;;;5042918;28;20366;-63
2022/06/10 01:44:53;;;;;;;3.70;2.10;;;;;;;;;;5047852;28;20197;-63
2022/06/10 01:47:29;;;;;;;3.93;2.00;;;;;;;;;;5038694;28;20198;-63
2022/06/10 01:50:10;;;;;;;4.40;1.90;;;;;;;;;;5015070;28;20202;-62
2022/06/10 01:52:39;;;;;;;4.17;1.97;;;;;;;;;;5046604;28;20711;-62
2022/06/10 01:55:10;;;;;;;4.70;2.27;;;;;;;;;;5044784;28;20222;-63
2022/06/10 01:57:52;;;;;;;5.10;2.23;;;;;;;;;;5046192;28;20229;-62
2022/06/10 02:00:24;;;;;;;4.30;2.20;;;;;;;;;;5046064;28;20212;-62
2022/06/10 02:02:59;;;;;;;7.50;2.37;;;;;;;;;;5027941;28;20217;-62
2022/06/10 02:05:36;;;;;;;6.10;2.17;;;;;;;;;;5031770;28;20189;-62
2022/06/10 02:08:15;;;;;;;4.97;2.00;;;;;;;;;;5040280;28;20202;-63
2022/06/10 02:10:49;;;;;;;6.57;1.90;;;;;;;;;;5030520;28;20217;-63
2022/06/10 02:13:22;;;;;;;6.07;2.43;;;;;;;;;;5047260;28;20207;-63
2022/06/10 02:15:55;;;;;;;5.87;2.30;;;;;;;;;;5042063;28;20194;-62
2022/06/10 02:18:57;;;;;;;6.23;2.10;;;;;;;;;;5034080;28;20651;-62
2022/06/10 02:21:33;;;;;;;6.27;2.10;;;;;;;;;;5020411;28;20208;-63
2022/06/10 02:24:11;;;;;;;5.33;2.33;;;;;;;;;;5045132;28;20194;-62
2022/06/10 02:26:40;;;;;;;7.17;2.27;;;;;;;;;;5047289;28;20221;-62
2022/06/10 02:29:15;;;;;;;6.67;2.67;;;;;;;;;;5045362;28;20221;-63
2022/06/10 02:31:48;;;;;;;7.87;3.03;;;;;;;;;;5040897;28;20221;-62
2022/06/10 02:34:16;;;;;;;8.73;2.30;;;;;;;;;;5019529;28;20227;-62
2022/06/10 02:37:00;;;;;;;5.83;2.57;;;;;;;;;;5026726;28;20738;-62
2022/06/10 02:39:38;;;;;;;5.00;2.20;;;;;;;;;;5035411;28;20206;-62
2022/06/10 02:42:13;;;;;;;6.03;2.50;;;;;;;;;;5006283;28;20707;-62
2022/06/10 02:45:00;;;;;;;6.90;2.23;;;;;;;;;;5026599;28;20195;-62
2022/06/10 02:47:57;;;;;;;4.47;2.27;;;;;;;;;;5024781;28;20300;-62
2022/06/10 02:50:28;;;;;;;5.10;2.33;;;;;;;;;;5011287;28;20899;-62
2022/06/10 02:52:58;;;;;;;6.03;2.43;;;;;;;;;;5027000;28;20199;-63
2022/06/10 02:55:26;;;;;;;4.93;2.20;;;;;;;;;;5024447;28;20217;-62
2022/06/10 03:03:50;;;;;;;8.60;2.77;;;;;;;;;;5026427;28;20691;-62
2022/06/10 03:06:35;;;;;;;4.40;2.00;;;;;;;;;;5029956;28;20210;-63
2022/06/10 03:09:28;;;;;;;4.87;2.10;;;;;;;;;;5019589;28;20217;-62
2022/06/10 03:11:58;;;;;;;4.33;2.20;;;;;;;;;;5017797;28;20199;-62
2022/06/10 03:14:41;;;;;;;4.70;1.80;;;;;;;;;;5038463;28;20226;-63
2022/06/10 03:17:20;;;;;;;4.70;2.20;;;;;;;;;;5029477;28;20183;-63
2022/06/10 03:20:07;;;;;;;5.13;2.03;;;;;;;;;;5007421;28;20203;-63
2022/06/10 03:22:43;;;;;;;4.33;2.37;;;;;;;;;;5027713;28;20210;-63
2022/06/10 03:25:27;;;;;;;3.57;1.80;;;;;;;;;;5030425;28;20218;-63
2022/06/10 03:27:58;;;;;;;7.10;2.17;;;;;;;;;;5010685;28;20217;-63
2022/06/10 03:30:30;;;;;;;5.47;2.20;;;;;;;;;;5010061;28;20273;-62
2022/06/10 03:33:23;;;;;;;2.67;1.73;;;;;;;;;;5031295;28;20700;-63
2022/06/10 03:35:54;;;;;;;4.93;2.40;;;;;;;;;;5046995;28;20213;-63
2022/06/10 03:38:24;;;;;;;5.20;2.00;;;;;;;;;;5040635;28;20198;-63
2022/06/10 03:40:55;;;;;;;5.63;1.93;;;;;;;;;;5050173;28;20205;-63
2022/06/10 03:43:34;;;;;;;4.60;1.77;;;;;;;;;;5047005;28;20267;-63
2022/06/10 03:46:06;;;;;;;5.33;1.97;;;;;;;;;;5051041;28;20193;-63
2022/06/10 03:48:37;;;;;;;4.10;2.10;;;;;;;;;;5032868;28;20559;-63
2022/06/10 03:51:07;;;;;;;7.10;1.93;;;;;;;;;;5032712;28;20214;-63
2022/06/10 03:53:37;;;;;;;4.63;2.57;;;;;;;;;;5021761;28;20614;-62
2022/06/10 03:56:10;;;;;;;3.47;1.50;;;;;;;;;;5052203;28;20220;-64
2022/06/10 03:58:41;;;;;;;3.80;1.93;;;;;;;;;;5034620;28;20248;-64
2022/06/10 04:01:28;;;;;;;3.43;1.80;;;;;;;;;;5033067;28;20193;-62
2022/06/10 04:03:59;;;;;;;3.20;1.50;;;;;;;;;;5028668;28;20286;-63
2022/06/10 04:06:28;;;;;;;4.27;1.97;;;;;;;;;;5047036;28;20748;-64
2022/06/10 04:09:24;;;;;;;4.03;2.30;;;;;;;;;;5036822;28;20639;-64
2022/06/10 04:11:54;;;;;;;3.20;1.80;;;;;;;;;;5044023;28;20214;-64
2022/06/10 04:14:26;;;;;;;6.10;1.70;;;;;;;;;;5049034;28;20190;-64
2022/06/10 04:17:00;;;;;;;3.87;1.57;;;;;;;;;;5045998;28;20213;-64
2022/06/10 04:19:32;;;;;;;4.20;1.90;;;;;;;;;;5041734;28;20690;-64
2022/06/10 04:22:05;;;;;;;3.87;2.00;;;;;;;;;;5052754;28;20229;-61
2022/06/10 04:24:36;;;;;;;4.23;1.77;;;;;;;;;;5049392;28;21036;-62
2022/06/10 04:27:07;;;;;;;4.97;1.83;;;;;;;;;;5049652;28;20267;-61
2022/06/10 04:29:36;;;;;;;5.13;1.70;;;;;;;;;;5045512;28;20214;-61
2022/06/10 04:32:04;;;;;;;3.37;1.77;;;;;;;;;;5031993;28;20202;-61
2022/06/10 04:34:34;;;;;;;5.83;2.03;;;;;;;;;;5034120;28;20901;-61
2022/06/10 04:37:08;;;;;;;3.93;1.80;;;;;;;;;;5028596;28;20203;-63
2022/06/10 04:39:39;;;;;;;4.30;1.70;;;;;;;;;;5026761;28;20191;-62
2022/06/10 04:42:10;;;;;;;4.87;1.87;;;;;;;;;;5026953;28;20211;-62
2022/06/10 04:44:42;;;;;;;3.13;1.77;;;;;;;;;;5026043;28;20253;-62
2022/06/10 04:47:13;;;;;;;3.93;1.70;;;;;;;;;;5028790;28;20198;-61
2022/06/10 04:49:45;;;;;;;6.40;2.07;;;;;;;;;;5026010;28;20225;-60
2022/06/10 04:52:16;;;;;;;4.80;1.90;;;;;;;;;;5029073;28;20203;-64
2022/06/10 04:54:50;;;;;;;3.50;1.80;;;;;;;;;;5026002;28;20266;-63
2022/06/10 04:57:20;;;;;;;3.27;1.70;;;;;;;;;;5028776;28;20187;-62
2022/06/10 04:59:52;;;;;;;3.47;1.80;;;;;;;;;;5027411;28;20202;-62
2022/06/10 05:02:22;;;;;;;12.87;3.50;;;;;;;;;;5024442;28;20191;-61
2022/06/10 05:04:54;;;;;;;24.07;7.37;;;;;;;;;;5011487;28;20668;-63
2022/06/10 05:07:25;;;;;;;15.60;5.70;;;;;;;;;;5025596;28;20644;-65
2022/06/10 05:09:55;;;;;;;19.87;6.73;;;;;;;;;;5026031;28;20305;-65
2022/06/10 05:12:28;;;;;;;24.77;6.97;;;;;;;;;;5028667;28;20500;-62
2022/06/10 05:14:59;;;;;;;20.70;7.20;;;;;;;;;;5028800;28;20203;-63
2022/06/10 05:17:28;;;;;;;15.10;5.90;;;;;;;;;;5028206;28;20195;-63
2022/06/10 05:20:10;;;;;;;16.43;6.20;;;;;;;;;;5028206;28;20661;-63
2022/06/10 05:22:41;;;;;;;16.10;6.50;;;;;;;;;;5027620;28;20233;-61
2022/06/10 05:25:12;;;;;;;19.30;5.83;;;;;;;;;;5029634;28;20190;-62
2022/06/10 05:27:41;;;;;;;14.97;5.50;;;;;;;;;;5009220;28;20199;-62
2022/06/10 05:30:12;;;;;;;12.27;5.33;;;;;;;;;;5023436;28;20235;-61
2022/06/10 05:32:41;;;;;;;14.17;5.63;;;;;;;;;;5024986;28;20230;-62
2022/06/10 05:35:10;;;;;;;12.80;4.30;;;;;;;;;;5023023;28;20231;-62
2022/06/10 05:37:37;;;;;;;12.37;4.53;;;;;;;;;;5022041;28;20218;-62
2022/06/10 05:40:36;;;;;;;9.63;4.23;;;;;;;;;;5022283;28;20222;-62
2022/06/10 05:43:07;;;;;;;10.10;4.03;;;;;;;;;;5023982;28;20211;-62
2022/06/10 05:45:42;;;;;;;8.30;3.70;;;;;;;;;;5023242;28;20813;-61
2022/06/10 05:48:13;;;;;;;6.93;3.23;;;;;;;;;;5021462;28;20199;-61
2022/06/10 05:50:43;;;;;;;8.67;3.63;;;;;;;;;;5026383;28;20215;-60
2022/06/10 05:53:18;;;;;;;7.13;2.90;;;;;;;;;;5016762;28;20246;-61
2022/06/10 05:55:49;;;;;;;7.17;3.57;;;;;;;;;;5019084;28;20204;-61
2022/06/10 05:58:21;;;;;;;7.00;2.90;;;;;;;;;;5023006;28;20210;-61
2022/06/10 06:00:51;;;;;;;8.63;3.07;;;;;;;;;;5022373;28;20253;-66
2022/06/10 06:03:24;;;;;;;22.73;5.30;;;;;;;;;;5021742;28;20302;-64
2022/06/10 06:06:04;;;;;;;60.20;12.63;;;;;;;;;;5023332;28;20222;-66
2022/06/10 06:08:35;;;;;;;41.73;11.97;;;;;;;;;;5019016;28;20520;-67
2022/06/10 06:11:05;;;;;;;50.10;12.90;;;;;;;;;;5025422;28;20226;-67
2022/06/10 06:13:35;;;;;;;34.87;10.60;;;;;;;;;;5026072;28;20210;-65
2022/06/10 06:16:06;;;;;;;30.40;8.40;;;;;;;;;;5027012;28;20743;-64
2022/06/10 06:18:38;;;;;;;21.27;7.13;;;;;;;;;;5010067;28;20195;-66
2022/06/10 06:21:07;;;;;;;13.60;5.67;;;;;;;;;;5023478;28;20617;-65
2022/06/10 06:23:34;;;;;;;14.23;4.67;;;;;;;;;;5026203;28;20195;-64
2022/06/10 06:26:03;;;;;;;11.93;4.53;;;;;;;;;;5019416;28;20225;-64
2022/06/10 06:28:31;;;;;;;8.30;3.60;;;;;;;;;;5013364;28;20210;-64
2022/06/10 06:30:58;;;;;;;5.97;3.03;;;;;;;;;;5020328;28;20245;-63
2022/06/10 06:33:25;;;;;;;7.20;2.77;;;;;;;;;;5007536;28;20222;-62
2022/06/10 06:35:54;;;;;;;7.30;2.87;;;;;;;;;;5043685;28;20679;-63
2022/06/10 06:38:21;;;;;;;4.40;2.30;;;;;;;;;;5043171;28;20217;-63
2022/06/10 06:40:49;;;;;;;5.07;2.00;;;;;;;;;;5046077;28;20209;-65
2022/06/10 06:43:16;;;;;;;4.70;2.30;;;;;;;;;;5046587;28;20215;-65
2022/06/10 06:45:44;;;;;;;5.53;2.23;;;;;;;;;;5042454;28;20202;-67
2022/06/10 06:48:12;;;;;;;3.80;1.80;;;22.60;56.30;;;;;;5046061;28;20201;-66
2022/06/10 06:50:48;;;;;;;3.27;1.60;;;;;;;;;;5043748;28;20218;-66
2022/06/10 06:53:15;;;;;;;4.60;1.83;;;;;;;;;;5043139;28;20197;-67
2022/06/10 06:55:42;;;;;;;3.77;2.00;;;22.80;56.10;;;;;;5041113;28;20792;-67
2022/06/10 06:58:15;;;;;;;4.83;1.97;;;22.80;55.80;;;;;;5043679;28;20194;-66
2022/06/10 07:00:45;;;;;;;3.60;1.93;;;22.80;55.60;;;;;;5042059;28;20824;-66
2022/06/10 07:03:15;;;;;;;6.73;2.17;;;22.90;55.40;;;;;;5021696;28;20228;-64
2022/06/10 07:05:48;;;;;;;5.63;2.47;;;22.90;55.30;;;;;;5004480;28;20194;-67
2022/06/10 07:08:30;;;;;;;6.20;2.30;;;;;;;;;;5044583;28;20217;-67
2022/06/10 07:11:04;;;;;;;3.03;1.67;;;;;;;;;;5043233;28;20233;-67
2022/06/10 07:13:36;;;;;;;3.47;2.03;;;;;;;;;;5049688;28;20247;-69
2022/06/10 07:16:09;;;;;;;6.10;1.83;;;;;;;;;;5040731;28;20841;-69
2022/06/10 07:18:45;;;;;;;4.57;1.93;;;;;;;;;;5042854;28;20214;-69
2022/06/10 07:21:15;;;;;;;5.57;2.10;;;;;;;;;;5037563;28;20203;-68
2022/06/10 07:23:46;;;;;;;5.33;2.10;;;;;;;;;;5051377;28;20193;-68
2022/06/10 07:26:16;;;;;;;4.40;1.60;;;;;;;;;;5050187;28;20229;-65
2022/06/10 07:28:43;;;;;;;6.30;2.10;;;;;;;;;;5047813;28;20186;-66
2022/06/10 07:31:11;;;;;;;4.03;2.00;;;;;;;;;;5043397;28;20233;-65
2022/06/10 07:33:40;;;;;;;3.90;1.80;;;;;;;;;;5038942;28;20860;-64
2022/06/10 07:36:10;;;;;;;2.47;1.60;;;;;;;;;;5045772;28;20538;-66
2022/06/10 07:38:39;;;;;;;3.10;1.57;;;;;;;;;;5043476;28;20200;-66
2022/06/10 07:43:59;;;;;;;5.63;1.97;;;;;;;;;;5037218;28;20225;-65
2022/06/10 07:46:27;;;;;;;2.53;1.40;;;;;;;;;;5042576;28;20206;-68
2022/06/10 07:48:58;;;;;;;4.23;1.87;;;;;;;;;;5039114;28;20227;-67
2022/06/10 07:51:29;;;;;;;5.43;1.63;;;;;;;;;;5045907;28;20226;-66
2022/06/10 07:54:00;;;;;;;2.87;1.47;;;;;;;;;;5043787;28;20241;-66
2022/06/10 07:56:29;;;;;;;4.40;1.30;;;;;;;;;;5046303;28;20294;-65
2022/06/10 07:58:58;;;;;;;2.70;1.50;;;;;;;;;;5042200;28;20199;-63
2022/06/10 08:01:27;;;;;;;4.87;1.80;;;;;;;;;;5052878;28;20202;-64
2022/06/10 08:03:54;;;;;;;2.97;1.63;;;;;;;;;;5044050;28;20217;-65
2022/06/10 08:06:23;;;;;;;3.87;1.50;;;;;;;;;;5045895;28;20218;-64
2022/06/10 08:08:50;;;;;;;6.23;1.70;;;;;;;;;;5050471;28;20183;-65
2022/06/10 08:11:19;;;;;;;2.70;1.40;;;;;;;;;;5047738;28;20773;-65
2022/06/10 08:13:46;;;;;;;2.20;1.43;;;;;;;;;;5043336;28;20787;-64
2022/06/10 08:16:18;;;;;;;8.17;1.20;;;;;;;;;;5047051;28;20191;-65
2022/06/10 08:18:48;;;;;;;3.60;1.17;;;;;;;;;;5045285;28;20287;-66
2022/06/10 08:24:06;;;;;;;1.57;1.00;;;;;;;;;;5032866;28;20208;-66
2022/06/10 08:26:39;;;;;;;2.50;1.20;;;;;;;;;;5049510;28;20691;-66
2022/06/10 08:29:16;;;;;;;3.90;1.30;;;;;;;;;;5028291;28;20186;-66
2022/06/10 08:31:59;;;;;;;3.33;1.40;;;;;;;;;;5028869;28;20343;-64
2022/06/10 08:34:30;;;;;;;2.13;1.20;;;;;;;;;;5042743;28;20695;-65
2022/06/10 08:37:00;;;;;;;2.83;1.20;;;;;;;;;;5047938;28;21041;-64
2022/06/10 08:39:30;;;;;;;2.10;1.20;;;;;;;;;;5049189;28;20213;-64
2022/06/10 08:42:16;;;;;;;3.60;1.30;;;;;;;;;;5049642;28;20699;-66
2022/06/10 08:44:54;;;;;;;9.13;1.83;;;;;;;;;;5048607;28;20418;-65
2022/06/10 08:47:34;;;;;;;4.10;1.53;;;;;;;;;;5050282;28;20449;-64
2022/06/10 08:50:05;;;;;;;2.30;1.17;;;;;;;;;;5047084;28;20631;-64
2022/06/10 08:53:13;;;;;;;3.77;1.20;;;;;;;;;;5048317;28;20210;-63
2022/06/10 08:56:03;;;;;;;3.10;1.43;;;;;;;;;;4944533;28;20201;-64
2022/06/10 08:58:41;;;;;;;4.30;1.10;;;;;;;;;;5025429;28;20676;-64
2022/06/10 09:01:17;;;;;;;5.73;1.37;;;;;;;;;;5050964;28;20209;-66
2022/06/10 09:03:47;;;;;;;3.13;1.30;;;;;;;;;;5046524;28;20196;-66
2022/06/10 09:06:30;;;;;;;4.30;1.20;;;;;;;;;;5046507;28;20212;-65
2022/06/10 09:09:04;;;;;;;1.93;1.13;;;;;;;;;;5048425;28;20206;-65
2022/06/10 09:11:38;;;;;;;4.43;1.67;;;;;;;;;;5030575;28;20210;-66
2022/06/10 09:14:13;;;;;;;2.33;1.30;;;;;;;;;;5049342;28;20217;-66
2022/06/10 09:17:01;;;;;;;2.77;1.20;;;;;;;;;;5047190;28;20198;-68
2022/06/10 09:19:43;;;;;;;3.60;1.70;;;;;;;;;;5036243;28;20198;-69
2022/06/10 09:22:30;;;;;;;2.47;1.13;;;;;;;;;;5045584;28;20194;-68
2022/06/10 09:25:12;;;;;;;2.30;1.00;;;;;;;;;;5048185;28;20234;-65
2022/06/10 09:27:44;;;;;;;4.03;1.83;;;;;;;;;;5044617;28;20217;-63
2022/06/10 09:30:13;;;;;;;3.47;1.40;;;;;;;;;;5040901;28;20211;-66
2022/06/10 09:32:43;;;;;;;2.93;1.23;;;;;;;;;;5043727;28;20223;-64
2022/06/10 09:35:21;;;;;;;2.40;1.33;;;;;;;;;;5047151;28;20292;-64
2022/06/10 09:38:09;;;;;;;2.17;1.20;;;;;;;;;;5039614;28;20187;-63
2022/06/10 09:40:44;;;;;;;3.03;1.20;;;;;;;;;;5048936;28;20252;-63
2022/06/10 09:43:37;;;;;;;4.03;1.30;;;;;;;;;;5014538;28;20202;-63
2022/06/10 09:46:11;;;;;;;3.13;1.33;;;;;;;;;;5048105;28;20264;-63
2022/06/10 09:48:39;;;;;;;3.30;1.20;;;;;;;;;;5053082;28;20483;-63
2022/06/10 09:51:09;;;;;;;2.50;1.30;;;;;;;;;;5050584;28;20532;-63
2022/06/10 09:53:55;;;;;;;3.60;1.40;;;;;;;;;;5023392;28;20202;-64
2022/06/10 09:56:24;;;;;;;3.47;1.27;;;;;;;;;;5047381;28;20374;-64
2022/06/10 09:58:52;;;;;;;3.93;1.50;;;;;;;;;;5047900;28;20206;-63
2022/06/10 10:01:34;;;;;;;1.77;1.00;;;;;;;;;;5045002;28;20202;-63
2022/06/10 10:04:04;;;;;;;5.20;1.27;;;;;;;;;;5045010;28;20570;-64
2022/06/10 10:06:43;;;;;;;2.53;1.13;;;;;;;;;;5025945;28;20206;-65
2022/06/10 10:09:22;;;;;;;3.20;1.20;;;;;;;;;;5047186;28;20206;-68
2022/06/10 10:12:10;;;;;;;9.43;1.30;;;;;;;;;;5023449;28;20225;-70
2022/06/10 10:14:41;;;;;;;4.83;1.47;;;;;;;;;;5024416;28;20198;-68
2022/06/10 10:17:27;;;;;;;2.87;1.50;;;;;;;;;;5047251;28;20205;-68
2022/06/10 10:20:00;;;;;;;3.83;1.47;;;;;;;;;;5031609;28;20212;-68
2022/06/10 10:22:36;;;;;;;5.33;1.90;;;;;;;;;;5046817;28;20370;-69
2022/06/10 10:25:04;;;;;;;6.33;2.37;;;;;;;;;;5038459;28;20206;-69
2022/06/10 10:27:34;;;;;;;5.47;1.47;;;;;;;;;;5052512;28;20201;-69
2022/06/10 10:30:19;;;;;;;9.17;2.03;;;;;;;;;;5041585;28;20222;-65
2022/06/10 10:32:50;;;;;;;6.83;2.10;;;;;;;;;;5025697;28;20568;-64
2022/06/10 10:35:29;;;;;;;5.20;2.17;;;;;;;;;;5046143;28;20230;-64
2022/06/10 10:38:02;;;;;;;6.33;1.93;;;;;;;;;;5019210;28;20426;-64
2022/06/10 10:40:49;;;;;;;5.43;2.10;;;;;;;;;;5045946;28;20182;-64
2022/06/10 10:43:21;;;;;;;3.53;1.80;;;;;;;;;;5041579;28;20241;-65
2022/06/10 10:46:11;;;;;;;4.47;1.57;;;;;;;;;;5042649;28;20199;-65
2022/06/10 10:48:46;;;;;;;4.73;1.73;;;;;;;;;;5044876;28;20241;-65
2022/06/10 10:51:13;;;;;;;4.43;1.60;;;23.80;54.60;;;;;;5046352;28;20213;-67
2022/06/10 10:54:13;;;;;;;8.80;2.47;;;23.80;55.00;;;;;;5033638;28;20282;-67
2022/06/10 10:56:43;;;;;;;5.13;1.83;;;23.90;54.90;;;;;;5056283;28;20547;-68
2022/06/10 10:59:31;;;;;;;7.90;1.70;;;23.90;55.00;;;;;;5041854;28;20209;-68
2022/06/10 11:01:59;;;;;;;3.83;1.53;;;;;;;;;;5038340;28;20232;-67
2022/06/10 11:04:29;;;;;;;4.47;1.93;;;;;;;;;;5047675;28;20186;-65
2022/06/10 11:07:05;;;;;;;4.03;1.73;;;24.00;55.40;;;;;;5046219;28;20210;-67
2022/06/10 11:10:04;;;;;;;4.70;1.70;;;24.00;54.70;;;;;;5042706;28;20234;-68
2022/06/10 11:12:33;;;;;;;6.50;1.60;;;24.00;54.90;;;;;;5040892;28;20214;-69
2022/06/10 11:15:15;;;;;;;7.50;2.20;;;24.00;54.90;;;;;;5046570;28;20194;-69
2022/06/10 11:17:46;;;;;;;4.00;1.70;;;24.00;55.00;;;;;;5032907;28;20183;-69
2022/06/10 11:20:29;;;;;;;3.27;1.63;;;24.10;54.90;;;;;;5040420;28;20195;-65
2022/06/10 11:23:24;;;;;;;4.10;1.87;;;24.10;55.00;;;;;;5053381;28;20201;-68
2022/06/10 11:26:06;;;;;;;5.97;2.10;;;24.10;55.10;;;;;;5047171;28;20199;-67
2022/06/10 11:28:39;;;;;;;5.83;2.03;;;24.10;55.00;;;;;;5055456;28;20197;-69
2022/06/10 11:31:27;;;;;;;8.93;1.80;;;24.20;55.00;;;;;;5041431;28;20699;-68
2022/06/10 11:33:59;;;;;;;6.93;1.83;;;24.20;55.00;;;;;;5023045;28;20234;-69
2022/06/10 11:36:28;;;;;;;4.47;1.70;;;;;;;;;;5048184;28;20202;-68
2022/06/10 11:39:08;;;;;;;7.13;1.90;;;;;;;;;;5049577;28;20202;-68
2022/06/10 11:41:35;;;;;;;5.00;1.53;;;;;;;;;;5047922;28;20186;-63
2022/06/10 11:44:08;;;;;;;5.07;1.93;;;;;;;;;;5049470;28;20200;-67
2022/06/10 11:46:36;;;;;;;3.47;1.70;;;;;;;;;;5052078;28;20187;-68
2022/06/10 11:49:22;;;;;;;5.00;1.60;;;;;;;;;;5056610;28;20202;-68
2022/06/10 11:52:08;;;;;;;3.93;1.90;;;;;;;;;;5048682;28;20226;-68
2022/06/10 11:55:06;;;;;;;4.13;1.87;;;;;;;;;;5031573;28;20582;-69
2022/06/10 12:00:47;;;;;;;5.73;1.97;;;;;;;;;;5052187;28;20204;-69
2022/06/10 12:03:33;;;;;;;4.10;1.50;;;;;;;;;;5042639;28;20190;-67
2022/06/10 12:06:16;;;;;;;3.57;1.80;;;;;;;;;;5035727;28;20222;-65
2022/06/10 12:08:53;;;;;;;5.13;2.37;;;;;;;;;;5030736;28;20186;-65
2022/06/10 12:11:20;;;;;;;4.77;1.80;;;;;;;;;;5049207;28;20533;-65
2022/06/10 12:14:05;;;;;;;5.13;1.87;;;;;;;;;;5044418;28;20195;-64
2022/06/10 12:16:42;;;;;;;5.63;2.53;;;;;;;;;;5045942;28;20204;-64
2022/06/10 12:19:14;;;;;;;4.23;1.80;;;;;;;;;;5023290;28;20231;-64
2022/06/10 12:21:42;;;;;;;6.07;2.20;;;;;;;;;;5024053;28;20222;-64
2022/06/10 12:24:16;;;;;;;3.90;1.83;;;;;;;;;;5024142;28;20337;-64
2022/06/10 12:26:49;;;;;;;7.23;2.03;;;;;;;;;;5046353;28;20213;-64
2022/06/10 12:29:30;;;;;;;5.97;2.10;;;;;;;;;;5046574;28;20199;-64
2022/06/10 12:32:14;;;;;;;8.00;2.00;;;;;;;;;;5033380;28;20680;-64
2022/06/10 12:34:53;;;;;;;4.20;2.00;;;;;;;;;;5041938;28;20226;-64
2022/06/10 12:37:27;;;;;;;6.17;2.77;;;;;;;;;;5040131;28;20191;-64
2022/06/10 12:40:07;;;;;;;7.43;2.67;;;;;;;;;;5044826;28;20204;-64
2022/06/10 12:42:41;;;;;;;6.37;2.40;;;;;;;;;;5041912;28;20217;-64
2022/06/10 12:45:40;;;;;;;6.23;2.33;;;;;;;;;;5035935;28;20206;-64
2022/06/10 12:48:31;;;;;;;5.57;2.37;;;;;;;;;;5044502;28;20190;-64
2022/06/10 12:51:15;;;;;;;5.43;2.73;;;;;;;;;;5050159;28;20197;-64
2022/06/10 12:53:49;;;;;;;5.87;2.43;;;;;;;;;;5042573;28;20217;-64
2022/06/10 12:56:32;;;;;;;4.73;2.03;;;;;;;;;;5045795;28;20276;-64
2022/06/10 12:59:09;;;;;;;3.33;2.00;;;;;;;;;;5045702;28;20198;-64
2022/06/10 13:01:37;;;;;;;4.53;2.67;;;;;;;;;;5046721;28;20932;-64
2022/06/10 13:04:24;;;;;;;7.33;2.60;;;;;;;;;;5047666;28;20287;-64
2022/06/10 13:07:00;;;;;;;6.00;2.60;;;;;;;;;;5044724;28;20202;-64
2022/06/10 13:09:37;;;;;;;7.20;2.80;;;;;;;;;;5041877;28;20198;-63
2022/06/10 13:12:11;;;;;;;4.53;2.27;;;;;;;;;;5045025;28;20224;-64
2022/06/10 13:14:44;;;;;;;7.20;2.20;;;;;;;;;;5047261;28;20652;-64
2022/06/10 13:17:27;;;;;;;5.57;2.33;;;;;;;;;;5029115;28;20186;-64
2022/06/10 13:19:59;;;;;;;7.70;2.90;;;;;;;;;;5039269;28;20566;-64
2022/06/10 13:22:35;;;;;;;6.33;2.90;;;;;;;;;;5045411;28;20691;-64
2022/06/10 13:25:22;;;;;;;4.93;2.60;;;;;;;;;;5038929;28;20189;-68
2022/06/10 13:27:59;;;;;;;8.00;2.70;;;;;;;;;;5041354;28;20232;-67
2022/06/10 13:30:29;;;;;;;8.03;2.43;;;;;;;;;;5040669;28;20252;-67
2022/06/10 13:33:02;;;;;;;4.83;2.10;;;;;;;;;;5041591;28;20210;-67
2022/06/10 13:35:32;;;;;;;5.50;2.07;;;;;;;;;;5046486;28;20225;-67
2022/06/10 13:38:01;;;;;;;9.70;2.33;;;;;;;;;;5042137;28;20898;-66
2022/06/10 13:40:30;;;;;;;4.67;2.20;;;;;;;;;;5046667;28;20194;-66
2022/06/10 13:43:17;;;;;;;4.60;2.37;;;;;;;;;;5030747;28;20237;-67
2022/06/10 13:45:47;;;;;;;7.60;2.30;;;;;;;;;;5042608;28;20659;-66
2022/06/10 13:48:19;;;;;;;7.50;2.47;;;;;;;;;;5045022;28;20201;-65
2022/06/10 13:53:42;;;;;;;6.33;2.33;;;;;;;;;;5044228;28;20680;-67
2022/06/10 13:56:13;;;;;;;5.67;2.47;;;;;;;;;;5044595;28;20193;-70
2022/06/10 13:58:46;;;;;;;7.87;2.23;;;;;;;;;;5025600;28;20191;-68
2022/06/10 14:01:27;;;;;;;6.07;2.43;;;;;;;;;;5043911;28;20306;-67
2022/06/10 14:04:04;;;;;;;5.00;2.30;;;;;;;;;;5044636;28;20256;-67
2022/06/10 14:06:47;;;;;;;5.90;2.07;;;;;;;;;;5041429;28;20211;-70
2022/06/10 14:09:27;;;;;;;4.03;1.93;;;;;;;;;;5021240;28;20640;-66
2022/06/10 14:12:11;;;;;;;5.30;2.07;;;;;;;;;;5041796;28;20257;-66
2022/06/10 14:14:42;;;;;;;5.33;2.10;;;;;;;;;;5032319;28;20647;-68
2022/06/10 14:17:16;;;;;;;5.03;1.90;;;;;;;;;;5036423;28;20202;-71
2022/06/10 14:19:51;;;;;;;5.13;2.23;;;;;;;;;;5016776;28;20233;-68
2022/06/10 14:22:22;;;;;;;6.30;2.20;;;;;;;;;;5042984;28;20205;-68
2022/06/10 14:25:08;;;;;;;5.90;2.40;;;;;;;;;;5023316;28;20201;-65
2022/06/10 14:27:36;;;;;;;5.30;2.70;;;;;;;;;;5031858;28;20203;-63
2022/06/10 14:30:13;;;;;;;7.23;2.40;;;;;;;;;;5041999;28;20216;-70
2022/06/10 14:32:49;;;;;;;4.50;2.37;;;;;;;;;;5050419;28;20213;-68
2022/06/10 14:35:35;;;;;;;5.90;2.00;;;;;;;;;;5046554;28;20902;-66
2022/06/10 14:38:20;;;;;;;6.30;2.40;;;;;;;;;;5046946;28;20194;-67
2022/06/10 14:40:53;;;;;;;9.13;2.13;;;;;;;;;;5039886;28;20201;-69
2022/06/10 14:43:22;;;;;;;4.57;1.90;;;;;;;;;;5040947;28;20229;-70
2022/06/10 14:46:01;;;;;;;4.20;2.20;;;;;;;;;;5043706;28;20207;-69
2022/06/10 14:48:31;;;;;;;7.30;2.37;;;;;;;;;;5046673;28;20205;-70
2022/06/10 14:51:17;;;;;;;8.67;2.40;;;;;;;;;;5041762;28;20206;-71
2022/06/10 14:53:45;;;;;;;4.93;1.87;;;;;;;;;;5038173;28;20213;-70
2022/06/10 14:56:19;;;;;;;5.90;2.13;;;;;;;;;;5046364;28;20202;-65
2022/06/10 14:58:47;;;;;;;6.27;2.20;;;;;;;;;;5033952;28;20537;-70
2022/06/10 15:01:18;;;;;;;3.60;1.80;;;;;;;;;;5045404;28;20624;-67
2022/06/10 15:03:45;;;;;;;4.77;2.10;;;;;;;;;;5043929;28;20221;-68
2022/06/10 15:06:32;;;;;;;3.57;1.90;;;;;;;;;;5044936;28;20218;-69
2022/06/10 15:09:22;;;;;;;9.90;2.40;;;;;;;;;;5051084;28;20194;-69
2022/06/10 15:11:50;;;;;;;8.13;2.10;;;24.90;55.00;;;;;;5047514;28;20198;-69
2022/06/10 15:14:19;;;;;;;7.67;1.90;;;25.00;55.30;;;;;;5051988;28;20221;-67
2022/06/10 15:16:46;;;;;;;4.07;1.87;;;25.00;54.70;;;;;;5033431;28;20218;-72
2022/06/10 15:19:33;;;;;;;8.80;2.60;;;25.00;54.80;;;;;;5039124;28;20824;-67
2022/06/10 15:22:00;;;;;;;12.97;2.37;;;25.00;54.70;;;;;;5047394;28;20198;-69
2022/06/10 15:24:27;;;;;;;4.73;2.13;;;25.00;54.70;;;;;;5049940;28;20206;-67
2022/06/10 15:26:56;;;;;;;8.93;2.10;;;25.00;54.60;;;;;;5049713;28;20198;-67
2022/06/10 15:29:27;;;;;;;5.00;2.03;;;25.00;54.60;;;;;;5047072;28;20208;-66
2022/06/10 15:31:56;;;;;;;7.03;2.40;;;25.00;54.50;;;;;;5025650;28;20210;-65
2022/06/10 15:34:23;;;;;;;3.70;2.00;;;25.00;54.40;;;;;;5049544;28;20234;-67